createdAt,value
2022-08-09T00:00:06.328Z,3.73
2022-08-09T00:02:35.630Z,3.90
2022-08-09T00:06:15.638Z,4.07
2022-08-09T00:07:54.274Z,3.60
2022-08-09T00:10:24.826Z,4.00
2022-08-09T00:12:53.267Z,3.50
2022-08-09T00:15:26.448Z,4.20
2022-08-09T00:18:05.258Z,3.80
2022-08-09T00:20:42.354Z,4.00
2022-08-09T00:23:58.233Z,3.77
2022-08-09T00:26:06.644Z,3.57
2022-08-09T00:28:34.546Z,3.77
2022-08-09T00:31:30.317Z,3.30
2022-08-09T00:33:51.911Z,3.83
2022-08-09T00:36:19.744Z,3.90
2022-08-09T00:38:50.523Z,3.97
2022-08-09T00:44:11.526Z,3.40
2022-08-09T00:44:26.383Z,3.80
2022-08-09T00:46:57.292Z,3.67
2022-08-09T00:49:32.936Z,3.33
2022-08-09T00:52:05.332Z,3.50
2022-08-09T00:54:35.183Z,3.80
2022-08-09T00:57:08.754Z,3.60
2022-08-09T00:59:41.134Z,3.90
2022-08-09T01:02:10.359Z,3.83
2022-08-09T01:04:40.266Z,3.57
2022-08-09T01:07:17.633Z,3.60
2022-08-09T01:09:49.517Z,3.40
2022-08-09T01:12:21.599Z,3.33
2022-08-09T01:14:52.659Z,3.67
2022-08-09T01:17:24.457Z,4.03
2022-08-09T01:20:02.380Z,4.07
2022-08-09T01:22:45.401Z,3.80
2022-08-09T01:25:22.584Z,3.67
2022-08-09T01:27:53.204Z,3.27
2022-08-09T01:30:35.304Z,3.90
2022-08-09T01:33:13.922Z,3.67
2022-08-09T01:35:43.093Z,3.67
2022-08-09T01:38:14.836Z,3.83
2022-08-09T01:40:44.875Z,3.80
2022-08-09T01:43:21.984Z,3.80
2022-08-09T01:45:52.524Z,3.80
2022-08-09T01:48:29.449Z,3.90
2022-08-09T01:50:58.811Z,3.97
2022-08-09T01:53:28.915Z,3.70
2022-08-09T01:55:57.314Z,3.47
2022-08-09T01:58:27.326Z,3.70
2022-08-09T02:00:57.139Z,3.43
2022-08-09T02:03:24.952Z,3.73
2022-08-09T02:06:06.322Z,3.90
2022-08-09T02:08:57.425Z,4.07
2022-08-09T02:11:42.826Z,3.70
2022-08-09T02:14:15.962Z,3.50
2022-08-09T02:17:08.998Z,3.30
2022-08-09T02:19:43.234Z,4.23
2022-08-09T02:22:13.710Z,4.07
2022-08-09T02:24:41.752Z,3.70
2022-08-09T02:27:10.588Z,3.93
2022-08-09T02:29:45.021Z,3.60
2022-08-09T02:32:18.555Z,4.10
2022-08-09T02:34:55.632Z,3.80
2022-08-09T02:37:31.865Z,4.17
2022-08-09T02:40:03.120Z,3.80
2022-08-09T02:42:32.903Z,3.73
2022-08-09T02:45:05.036Z,4.10
2022-08-09T02:47:57.689Z,3.80
2022-08-09T02:50:24.298Z,3.80
2022-08-09T02:52:55.432Z,4.00
2022-08-09T02:55:24.043Z,3.87
2022-08-09T02:58:35.934Z,3.63
2022-08-09T03:01:04.229Z,3.73
2022-08-09T03:03:37.245Z,3.73
2022-08-09T03:06:22.584Z,3.77
2022-08-09T03:08:51.189Z,3.90
2022-08-09T03:11:29.742Z,3.50
2022-08-09T03:14:09.993Z,3.80
2022-08-09T03:16:44.699Z,3.70
2022-08-09T03:19:14.570Z,3.60
2022-08-09T03:22:03.095Z,3.37
2022-08-09T03:24:31.578Z,3.60
2022-08-09T03:27:10.915Z,3.53
2022-08-09T03:29:57.382Z,3.57
2022-08-09T03:32:28.792Z,3.50
2022-08-09T03:34:56.286Z,3.60
2022-08-09T03:37:56.051Z,3.50
2022-08-09T03:40:13.630Z,3.50
2022-08-09T03:42:45.728Z,4.07
2022-08-09T03:45:15.590Z,3.50
2022-08-09T03:47:46.847Z,3.60
2022-08-09T03:50:18.845Z,3.40
2022-08-09T03:52:55.712Z,3.50
2022-08-09T03:55:25.249Z,3.80
2022-08-09T03:58:06.417Z,3.93
2022-08-09T04:00:42.785Z,3.50
2022-08-09T04:03:15.273Z,3.37
2022-08-09T04:05:52.625Z,3.20
2022-08-09T04:08:20.058Z,3.30
2022-08-09T04:11:01.430Z,3.53
2022-08-09T04:14:37.370Z,3.57
2022-08-09T04:16:19.759Z,3.00
2022-08-09T04:18:51.086Z,3.27
2022-08-09T04:21:18.954Z,3.63
2022-08-09T04:23:53.917Z,3.43
2022-08-09T04:26:23.162Z,2.90
2022-08-09T04:28:52.388Z,3.30
2022-08-09T04:31:22.452Z,3.30
2022-08-09T04:33:56.960Z,3.60
2022-08-09T04:36:27.699Z,3.53
2022-08-09T04:38:55.904Z,3.10
2022-08-09T04:41:24.454Z,3.50
2022-08-09T04:44:05.800Z,3.37
2022-08-09T04:46:57.734Z,3.30
2022-08-09T04:49:40.058Z,3.50
2022-08-09T04:52:11.982Z,3.60
2022-08-09T04:54:47.167Z,3.40
2022-08-09T04:57:15.214Z,3.67
2022-08-09T04:59:42.652Z,3.50
2022-08-09T05:02:15.143Z,3.90
2022-08-09T05:04:43.952Z,3.50
2022-08-09T05:07:19.051Z,3.57
2022-08-09T05:09:49.887Z,3.40
2022-08-09T05:12:17.720Z,3.20
2022-08-09T05:14:46.038Z,3.63
2022-08-09T05:17:15.455Z,3.60
2022-08-09T05:20:02.494Z,3.70
2022-08-09T05:22:35.831Z,3.57
2022-08-09T05:25:17.457Z,3.27
2022-08-09T05:27:47.890Z,3.20
2022-08-09T05:30:16.050Z,3.47
2022-08-09T05:32:45.602Z,3.20
2022-08-09T05:35:21.827Z,3.50
2022-08-09T05:37:50.983Z,3.20
2022-08-09T05:40:18.909Z,3.50
2022-08-09T05:42:47.279Z,3.60
2022-08-09T05:45:14.978Z,2.97
2022-08-09T05:47:52.993Z,3.17
2022-08-09T05:50:43.978Z,3.57
2022-08-09T05:53:31.809Z,3.30
2022-08-09T05:56:01.484Z,3.23
2022-08-09T05:58:29.210Z,3.57
2022-08-09T06:00:57.055Z,3.30
2022-08-09T06:03:25.769Z,3.50
2022-08-09T06:06:06.162Z,4.03
2022-08-09T06:08:34.204Z,3.43
2022-08-09T06:11:17.374Z,3.13
2022-08-09T06:13:47.332Z,3.03
2022-08-09T06:16:15.193Z,3.23
2022-08-09T06:18:43.862Z,3.17
2022-08-09T06:21:12.719Z,3.00
2022-08-09T06:23:58.416Z,3.10
2022-08-09T06:26:29.822Z,3.33
2022-08-09T06:29:03.966Z,2.90
2022-08-09T06:31:40.022Z,2.97
2022-08-09T06:34:22.771Z,3.13
2022-08-09T06:36:59.074Z,3.10
2022-08-09T06:39:48.499Z,3.13
2022-08-09T06:42:14.856Z,3.10
2022-08-09T06:44:42.356Z,3.17
2022-08-09T06:47:11.027Z,3.10
2022-08-09T06:50:11.998Z,2.80
2022-08-09T06:52:28.844Z,4.03
2022-08-09T06:54:57.135Z,3.03
2022-08-09T06:57:25.871Z,3.30
2022-08-09T07:00:49.343Z,3.03
2022-08-09T07:03:01.143Z,3.17
2022-08-09T07:05:58.419Z,3.37
2022-08-09T07:08:22.577Z,2.80
2022-08-09T07:10:52.720Z,3.40
2022-08-09T07:13:28.002Z,2.90
2022-08-09T07:16:39.810Z,2.83
2022-08-09T07:18:47.594Z,3.20
2022-08-09T07:21:17.638Z,3.20
2022-08-09T07:23:57.915Z,3.17
2022-08-09T07:26:25.965Z,2.63
2022-08-09T07:29:08.967Z,3.07
2022-08-09T07:31:45.261Z,2.60
2022-08-09T07:34:20.695Z,2.90
2022-08-09T07:36:48.714Z,2.70
2022-08-09T07:39:20.633Z,2.77
2022-08-09T07:42:05.261Z,2.80
2022-08-09T07:44:51.097Z,2.70
2022-08-09T07:47:21.089Z,3.07
2022-08-09T07:50:04.501Z,2.77
2022-08-09T07:52:33.669Z,2.50
2022-08-09T07:55:09.620Z,2.63
2022-08-09T07:57:47.153Z,3.10
2022-08-09T08:00:20.844Z,2.90
2022-08-09T08:03:04.469Z,2.93
2022-08-09T08:05:53.897Z,3.23
2022-08-09T08:09:02.067Z,3.00
2022-08-09T08:12:10.510Z,2.80
2022-08-09T08:13:57.562Z,2.70
2022-08-09T08:16:29.659Z,2.77
2022-08-09T08:18:59.907Z,2.70
2022-08-09T08:21:31.126Z,2.73
2022-08-09T08:24:01.057Z,3.00
2022-08-09T08:26:54.674Z,2.63
2022-08-09T08:29:20.464Z,2.70
2022-08-09T08:32:04.167Z,2.37
2022-08-09T08:34:34.575Z,2.83
2022-08-09T08:37:03.556Z,2.87
2022-08-09T08:39:39.668Z,2.60
2022-08-09T08:42:12.313Z,2.63
2022-08-09T08:44:40.349Z,2.80
2022-08-09T08:47:12.827Z,3.20
2022-08-09T08:49:48.671Z,2.90
2022-08-09T08:52:53.084Z,3.00
2022-08-09T08:55:05.487Z,2.90
2022-08-09T08:57:35.884Z,3.27
2022-08-09T09:00:12.751Z,2.57
2022-08-09T09:02:52.807Z,3.00
2022-08-09T09:05:33.150Z,3.10
2022-08-09T09:08:30.082Z,3.10
2022-08-09T09:10:59.153Z,2.87
2022-08-09T09:13:41.798Z,3.03
2022-08-09T09:16:16.174Z,2.90
2022-08-09T09:18:48.735Z,2.73
2022-08-09T09:21:26.395Z,3.00
2022-08-09T09:23:57.516Z,2.77
2022-08-09T09:26:26.712Z,3.03
2022-08-09T09:29:04.346Z,2.70
2022-08-09T09:32:01.641Z,2.90
2022-08-09T09:34:29.038Z,2.67
2022-08-09T09:36:56.959Z,2.77
2022-08-09T09:39:42.575Z,2.60
2022-08-09T09:42:22.351Z,2.20
2022-08-09T09:44:58.082Z,2.70
2022-08-09T09:47:26.505Z,2.70
2022-08-09T09:50:14.082Z,2.63
2022-08-09T09:52:53.825Z,2.97
2022-08-09T09:55:31.428Z,2.80
2022-08-09T09:58:15.930Z,2.70
2022-08-09T10:00:53.967Z,3.10
2022-08-09T10:03:39.906Z,2.70
2022-08-09T10:06:07.787Z,2.80
2022-08-09T10:08:43.090Z,2.60
2022-08-09T10:12:00.950Z,2.70
2022-08-09T10:14:27.222Z,2.53
2022-08-09T10:17:11.373Z,2.70
2022-08-09T10:19:46.899Z,2.87
2022-08-09T10:22:39.508Z,2.70
2022-08-09T10:25:11.697Z,2.70
2022-08-09T10:27:45.189Z,2.70
2022-08-09T10:34:04.558Z,2.60
2022-08-09T10:36:02.139Z,2.60
2022-08-09T10:38:54.912Z,2.90
2022-08-09T10:41:18.608Z,3.00
2022-08-09T10:43:59.231Z,2.40
2022-08-09T10:46:54.128Z,2.57
2022-08-09T10:49:50.346Z,2.67
2022-08-09T10:52:20.319Z,2.60
2022-08-09T10:54:49.970Z,2.43
2022-08-09T10:57:23.164Z,2.40
2022-08-09T10:59:58.082Z,2.53
2022-08-09T11:03:10.962Z,2.70
2022-08-09T11:05:30.233Z,2.77
2022-08-09T11:07:59.535Z,2.43
2022-08-09T11:10:54.526Z,2.30
2022-08-09T11:13:50.943Z,2.63
2022-08-09T11:16:33.568Z,2.40
2022-08-09T11:19:02.963Z,2.30
2022-08-09T11:22:10.456Z,2.53
2022-08-09T11:25:05.531Z,2.50
2022-08-09T11:28:03.613Z,2.50
2022-08-09T11:30:34.282Z,2.67
2022-08-09T11:33:04.566Z,2.60
2022-08-09T11:35:34.970Z,2.57
2022-08-09T11:38:18.601Z,2.80
2022-08-09T11:40:46.532Z,2.37
2022-08-09T11:43:16.081Z,2.70
2022-08-09T11:45:54.407Z,2.40
2022-08-09T11:48:24.942Z,2.50
2022-08-09T11:52:48.930Z,2.70
2022-08-09T11:54:01.192Z,2.83
2022-08-09T11:56:41.443Z,2.67
2022-08-09T11:59:12.112Z,2.93
2022-08-09T12:02:18.307Z,2.43
2022-08-09T12:04:28.707Z,2.63
2022-08-09T12:07:00.021Z,2.60
2022-08-09T12:09:33.953Z,3.10
2022-08-09T12:12:05.915Z,2.60
2022-08-09T12:15:08.337Z,2.70
2022-08-09T12:17:41.487Z,2.50
2022-08-09T12:20:16.347Z,2.80
2022-08-09T12:22:50.338Z,2.67
2022-08-09T12:25:36.420Z,2.80
2022-08-09T12:29:14.402Z,2.90
2022-08-09T12:30:57.633Z,2.80
2022-08-09T12:33:35.236Z,2.90
2022-08-09T12:36:15.523Z,2.67
2022-08-09T12:39:00.344Z,2.70
2022-08-09T12:41:34.869Z,2.60
2022-08-09T12:44:09.742Z,2.80
2022-08-09T12:46:40.975Z,2.77
2022-08-09T12:49:08.842Z,2.90
2022-08-09T12:52:00.133Z,3.20
2022-08-09T12:54:24.181Z,2.67
2022-08-09T12:56:55.402Z,2.63
2022-08-09T12:59:24.978Z,2.80
2022-08-09T13:02:12.389Z,3.03
2022-08-09T13:04:42.702Z,2.90
2022-08-09T13:07:11.465Z,2.70
2022-08-09T13:09:52.572Z,3.10
2022-08-09T13:12:24.935Z,2.93
2022-08-09T13:14:55.080Z,3.20
2022-08-09T13:17:44.290Z,2.80
2022-08-09T13:20:16.262Z,2.90
2022-08-09T13:23:05.502Z,3.23
2022-08-09T13:25:42.497Z,3.07
2022-08-09T13:28:14.081Z,3.03
2022-08-09T13:32:17.771Z,3.20
2022-08-09T13:33:53.412Z,2.90
2022-08-09T13:36:38.655Z,2.70
2022-08-09T13:41:50.705Z,2.90
2022-08-09T13:42:02.059Z,2.57
2022-08-09T13:44:31.671Z,3.03
2022-08-09T13:47:29.521Z,2.80
2022-08-09T13:49:57.899Z,2.80
2022-08-09T13:52:29.108Z,3.13
2022-08-09T13:54:59.057Z,2.90
2022-08-09T13:57:36.748Z,2.90
2022-08-09T14:00:09.435Z,2.80
2022-08-09T14:02:42.512Z,2.90
2022-08-09T14:05:58.778Z,2.83
2022-08-09T14:08:11.951Z,3.10
2022-08-09T14:10:50.182Z,2.70
2022-08-09T14:13:28.063Z,2.60
2022-08-09T14:16:10.334Z,2.93
2022-08-09T14:18:38.915Z,2.90
2022-08-09T14:21:17.405Z,2.63
2022-08-09T14:23:54.687Z,2.93
2022-08-09T14:26:25.311Z,2.57
2022-08-09T14:28:57.800Z,3.03
2022-08-09T14:31:36.028Z,3.00
2022-08-09T14:34:14.497Z,3.03
2022-08-09T14:36:45.864Z,2.53
2022-08-09T14:39:17.216Z,2.93
2022-08-09T14:41:44.831Z,2.70
2022-08-09T14:44:12.520Z,3.00
2022-08-09T14:47:02.260Z,3.00
2022-08-09T14:49:34.628Z,2.67
2022-08-09T14:52:16.586Z,2.93
2022-08-09T14:54:45.084Z,2.70
2022-08-09T14:57:12.569Z,2.70
2022-08-09T14:59:40.078Z,3.00
2022-08-09T15:02:09.083Z,2.70
2022-08-09T15:04:39.977Z,2.50
2022-08-09T15:07:10.381Z,2.80
2022-08-09T15:10:04.775Z,2.67
2022-08-09T15:12:25.459Z,3.20
2022-08-09T15:14:55.150Z,3.20
2022-08-09T15:17:24.377Z,3.13
2022-08-09T15:20:02.435Z,2.80
2022-08-09T15:22:30.492Z,3.03
2022-08-09T15:25:00.626Z,2.70
2022-08-09T15:27:31.359Z,3.20
2022-08-09T15:30:58.205Z,2.80
2022-08-09T15:33:07.638Z,2.90
2022-08-09T15:35:40.853Z,2.90
2022-08-09T15:38:12.439Z,3.37
2022-08-09T15:40:43.521Z,2.90
2022-08-09T15:43:13.242Z,2.73
2022-08-09T15:46:07.855Z,3.00
2022-08-09T15:48:31.960Z,3.03
2022-08-09T15:51:00.134Z,3.03
2022-08-09T15:54:05.069Z,3.20
2022-08-09T15:56:21.499Z,2.63
2022-08-09T15:58:56.261Z,2.83
2022-08-09T16:01:23.912Z,3.20
2022-08-09T16:03:52.755Z,2.90
2022-08-09T16:06:32.802Z,2.83
2022-08-09T16:09:04.946Z,2.97
2022-08-09T16:11:33.233Z,3.13
2022-08-09T16:14:03.529Z,3.20
2022-08-09T16:16:34.683Z,3.13
2022-08-09T16:19:05.955Z,3.17
2022-08-09T16:21:35.400Z,3.60
2022-08-09T16:24:03.040Z,3.00
2022-08-09T16:26:35.560Z,3.27
2022-08-09T16:29:10.337Z,3.03
2022-08-09T16:32:19.048Z,3.00
2022-08-09T16:34:28.809Z,2.90
2022-08-09T16:36:56.659Z,3.00
2022-08-09T16:39:26.046Z,3.03
2022-08-09T16:42:03.735Z,2.97
2022-08-09T16:44:32.536Z,3.00
2022-08-09T16:47:03.825Z,3.17
2022-08-09T16:50:32.071Z,3.17
2022-08-09T16:52:20.615Z,3.40
2022-08-09T16:54:51.164Z,3.10
2022-08-09T16:57:18.668Z,3.00
2022-08-09T16:59:50.284Z,3.10
2022-08-09T17:02:25.717Z,3.10
2022-08-09T17:04:54.512Z,3.07
2022-08-09T17:08:45.320Z,3.13
2022-08-09T17:10:12.225Z,2.97
2022-08-09T17:12:39.770Z,3.20
2022-08-09T17:15:30.740Z,3.37
2022-08-09T17:18:00.682Z,2.97
2022-08-09T17:20:37.650Z,2.87
2022-08-09T17:23:14.562Z,3.13
2022-08-09T17:25:42.757Z,3.03
2022-08-09T17:28:10.253Z,3.33
2022-08-09T17:30:47.596Z,2.90
2022-08-09T17:33:22.398Z,3.00
2022-08-09T17:35:51.999Z,3.13
2022-08-09T17:38:32.878Z,2.97
2022-08-09T17:41:04.531Z,3.40
2022-08-09T17:43:36.981Z,3.00
2022-08-09T17:46:06.994Z,2.93
2022-08-09T17:48:38.471Z,3.40
2022-08-09T17:51:09.882Z,3.30
2022-08-09T17:53:52.079Z,3.00
2022-08-09T17:56:20.987Z,3.00
2022-08-09T17:58:48.478Z,2.73
2022-08-09T18:01:22.499Z,3.30
2022-08-09T18:03:51.026Z,3.37
2022-08-09T18:06:31.874Z,3.17
2022-08-09T18:09:01.325Z,3.33
2022-08-09T18:11:29.015Z,3.30
2022-08-09T18:14:03.388Z,3.20
2022-08-09T18:16:39.284Z,3.10
2022-08-09T18:20:54.999Z,3.60
2022-08-09T18:22:05.782Z,3.20
2022-08-09T18:24:40.873Z,2.90
2022-08-09T18:27:10.122Z,3.20
2022-08-09T18:30:42.913Z,2.93
2022-08-09T18:32:29.159Z,2.90
2022-08-09T18:34:56.676Z,3.70
2022-08-09T18:37:46.967Z,3.43
2022-08-09T18:40:13.801Z,3.77
2022-08-09T18:42:46.750Z,3.17
2022-08-09T18:46:44.767Z,3.60
2022-08-09T18:48:02.147Z,2.97
2022-08-09T18:50:33.548Z,3.23
2022-08-09T18:53:04.154Z,3.17
2022-08-09T18:55:56.041Z,3.17
2022-08-09T18:58:32.075Z,2.87
2022-08-09T19:01:00.814Z,3.20
2022-08-09T19:03:28.647Z,3.40
2022-08-09T19:06:03.661Z,2.83
2022-08-09T19:08:33.301Z,2.80
2022-08-09T19:11:00.803Z,2.97
2022-08-09T19:13:50.054Z,2.93
2022-08-09T19:16:21.027Z,2.90
2022-08-09T19:18:48.948Z,3.03
2022-08-09T19:21:19.056Z,3.23
2022-08-09T19:24:38.054Z,2.90
2022-08-09T19:26:54.036Z,2.90
2022-08-09T19:29:21.537Z,3.23
2022-08-09T19:31:49.550Z,2.80
2022-08-09T19:34:22.851Z,3.23
2022-08-09T19:36:52.029Z,3.13
2022-08-09T19:39:28.937Z,2.93
2022-08-09T19:42:09.048Z,3.10
2022-08-09T19:44:42.671Z,3.00
2022-08-09T19:47:11.094Z,2.83
2022-08-09T19:50:06.830Z,3.20
2022-08-09T19:52:27.107Z,2.80
2022-08-09T19:54:56.859Z,3.20
2022-08-09T19:57:26.464Z,2.80
2022-08-09T20:00:00.001Z,3.50
2022-08-09T20:04:07.317Z,3.50
2022-08-09T20:05:23.459Z,3.00
2022-08-09T20:07:59.249Z,3.10
2022-08-09T20:10:34.280Z,2.90
2022-08-09T20:13:03.005Z,3.53
2022-08-09T20:16:33.204Z,3.27
2022-08-09T20:18:19.745Z,3.00
2022-08-09T20:20:47.334Z,2.80
2022-08-09T20:23:19.422Z,3.03
2022-08-09T20:25:53.621Z,2.70
2022-08-09T20:28:27.436Z,3.33
2022-08-09T20:30:59.690Z,2.80
2022-08-09T20:33:41.086Z,3.20
2022-08-09T20:36:11.902Z,3.33
2022-08-09T20:39:18.731Z,3.00
2022-08-09T20:41:35.579Z,3.23
2022-08-09T20:44:09.775Z,3.27
2022-08-09T20:46:42.971Z,2.80
2022-08-09T20:49:16.048Z,3.30
2022-08-09T20:51:50.385Z,3.07
2022-08-09T20:54:18.250Z,2.70
2022-08-09T20:56:49.827Z,3.50
2022-08-09T20:59:50.051Z,2.90
2022-08-09T21:02:10.807Z,2.90
2022-08-09T21:05:52.071Z,2.77
2022-08-09T21:07:38.512Z,3.13
2022-08-09T21:10:06.920Z,3.03
2022-08-09T21:12:38.171Z,3.13
2022-08-09T21:15:12.650Z,3.00
2022-08-09T21:18:25.553Z,3.27
2022-08-09T21:20:29.864Z,2.70
2022-08-09T21:22:58.308Z,2.87
2022-08-09T21:25:56.035Z,2.90
2022-08-09T21:28:33.848Z,2.43
2022-08-09T21:31:13.553Z,2.60
2022-08-09T21:33:50.301Z,2.70
2022-08-09T21:36:19.342Z,2.80
2022-08-09T21:38:51.047Z,2.50
2022-08-09T21:42:05.570Z,2.90
2022-08-09T21:44:32.816Z,2.77
2022-08-09T21:47:02.353Z,2.80
2022-08-09T21:49:39.474Z,2.70
2022-08-09T21:52:16.499Z,2.60
2022-08-09T21:54:50.706Z,2.30
2022-08-09T21:57:37.762Z,2.57
2022-08-09T22:00:25.980Z,2.73
2022-08-09T22:02:58.191Z,3.20
2022-08-09T22:05:35.539Z,2.60
2022-08-09T22:08:04.204Z,2.63
2022-08-09T22:10:31.790Z,2.40
2022-08-09T22:13:07.620Z,2.50
2022-08-09T22:15:40.449Z,2.83
2022-08-09T22:18:12.281Z,2.57
2022-08-09T22:20:42.993Z,2.77
2022-08-09T22:23:13.438Z,2.67
2022-08-09T22:26:06.491Z,2.53
2022-08-09T22:28:32.389Z,2.80
2022-08-09T22:31:02.199Z,2.70
2022-08-09T22:33:49.201Z,2.40
2022-08-09T22:36:19.321Z,3.00
2022-08-09T22:38:47.356Z,2.73
2022-08-09T22:41:15.115Z,3.50
2022-08-09T22:44:02.605Z,2.97
2022-08-09T22:48:11.600Z,2.70
2022-08-09T22:49:20.710Z,2.60
2022-08-09T22:51:56.969Z,2.67
2022-08-09T22:54:27.817Z,2.63
2022-08-09T22:56:56.613Z,2.70
2022-08-09T22:59:56.800Z,2.63
2022-08-09T23:02:15.839Z,2.80
2022-08-09T23:04:53.800Z,2.80
2022-08-09T23:08:27.631Z,2.70
2022-08-09T23:10:27.638Z,2.47
2022-08-09T23:12:55.100Z,3.00
2022-08-09T23:15:22.663Z,2.97
2022-08-09T23:17:51.607Z,2.83
2022-08-09T23:20:19.078Z,2.90
2022-08-09T23:22:46.595Z,2.80
2022-08-09T23:25:14.076Z,2.60
2022-08-09T23:27:58.425Z,2.87
2022-08-09T23:30:29.793Z,3.00
2022-08-09T23:32:58.638Z,2.90
2022-08-09T23:35:26.089Z,2.60
2022-08-09T23:37:53.553Z,2.70
2022-08-09T23:40:21.065Z,2.90
2022-08-09T23:42:48.891Z,2.80
2022-08-09T23:45:37.837Z,2.70
2022-08-09T23:48:08.914Z,3.10
2022-08-09T23:50:36.687Z,2.80
2022-08-09T23:53:04.294Z,3.00
2022-08-09T23:55:33.000Z,2.80
2022-08-09T23:58:10.324Z,2.77
